createdAt,value
2019-02-28T00:02:22.490Z,19.57
2019-02-28T00:04:53.150Z,25.55
2019-02-28T00:07:25.029Z,27.25
2019-02-28T00:09:57.387Z,18.32
2019-02-28T00:12:30.278Z,24.02
2019-02-28T00:15:01.661Z,24.07
2019-02-28T00:17:33.252Z,22.95
2019-02-28T00:20:04.928Z,22.82
2019-02-28T00:22:36.823Z,24.70
2019-02-28T00:25:08.318Z,25.30
2019-02-28T00:27:39.608Z,29.55
2019-02-28T00:30:11.019Z,34.00
2019-02-28T00:32:42.578Z,31.00
2019-02-28T00:35:14.107Z,28.77
2019-02-28T00:37:45.718Z,28.62
2019-02-28T00:40:16.633Z,30.68
2019-02-28T00:42:50.895Z,30.30
2019-02-28T00:45:21.169Z,36.70
2019-02-28T00:47:51.881Z,28.35
2019-02-28T00:50:23.126Z,31.60
2019-02-28T00:52:54.809Z,32.70
2019-02-28T00:55:26.672Z,30.85
2019-02-28T00:57:58.421Z,33.80
2019-02-28T01:00:29.420Z,32.65
2019-02-28T01:03:01.021Z,32.95
2019-02-28T01:05:32.025Z,34.60
2019-02-28T01:08:03.004Z,36.90
2019-02-28T01:10:38.953Z,35.35
2019-02-28T01:13:07.150Z,34.65
2019-02-28T01:15:44.491Z,47.35
2019-02-28T01:18:12.725Z,36.33
2019-02-28T01:20:49.991Z,34.63
2019-02-28T01:23:18.452Z,36.80
2019-02-28T01:25:49.851Z,40.50
2019-02-28T01:28:23.458Z,37.10
2019-02-28T01:30:55.283Z,39.13
2019-02-28T01:33:27.109Z,37.63
2019-02-28T01:35:58.710Z,34.38
2019-02-28T01:38:29.953Z,39.15
2019-02-28T01:41:01.436Z,38.28
2019-02-28T01:43:32.595Z,37.83
2019-02-28T01:46:04.542Z,33.00
2019-02-28T01:48:35.926Z,44.08
2019-02-28T01:51:07.552Z,41.35
2019-02-28T01:53:39.126Z,48.23
2019-02-28T01:56:10.364Z,41.08
2019-02-28T01:58:41.934Z,39.63
2019-02-28T02:01:13.731Z,47.30
2019-02-28T02:03:44.686Z,40.33
2019-02-28T02:06:15.656Z,39.33
2019-02-28T02:08:47.219Z,45.83
2019-02-28T02:11:18.186Z,39.40
2019-02-28T02:13:49.740Z,43.75
2019-02-28T02:16:26.840Z,40.38
2019-02-28T02:18:54.248Z,35.20
2019-02-28T02:21:26.417Z,41.60
2019-02-28T02:23:57.659Z,56.37
2019-02-28T02:26:29.211Z,46.77
2019-02-28T02:29:01.189Z,43.28
2019-02-28T02:31:33.998Z,43.05
2019-02-28T02:34:05.265Z,40.10
2019-02-28T02:36:36.580Z,42.10
2019-02-28T02:39:09.115Z,46.28
2019-02-28T02:41:40.378Z,44.18
2019-02-28T02:44:11.478Z,45.85
2019-02-28T02:46:43.462Z,45.58
2019-02-28T02:49:19.857Z,50.60
2019-02-28T02:51:50.561Z,51.95
2019-02-28T02:54:20.653Z,42.58
2019-02-28T02:56:52.606Z,43.68
2019-02-28T02:59:23.460Z,51.83
2019-02-28T03:01:56.186Z,41.08
2019-02-28T03:04:27.707Z,39.30
2019-02-28T03:06:59.131Z,42.35
2019-02-28T03:09:31.088Z,39.83
2019-02-28T03:12:02.333Z,42.45
2019-02-28T03:14:33.835Z,45.98
2019-02-28T03:17:09.577Z,39.95
2019-02-28T03:19:38.448Z,40.58
2019-02-28T03:22:10.378Z,44.98
2019-02-28T03:24:42.230Z,44.73
2019-02-28T03:27:18.526Z,42.70
2019-02-28T03:29:47.673Z,40.55
2019-02-28T03:32:19.575Z,40.83
2019-02-28T03:34:58.136Z,39.30
2019-02-28T03:37:23.796Z,39.70
2019-02-28T03:40:02.729Z,36.38
2019-02-28T03:42:30.010Z,39.30
2019-02-28T03:45:01.648Z,38.95
2019-02-28T03:47:33.506Z,35.90
2019-02-28T03:50:05.162Z,35.00
2019-02-28T03:52:42.294Z,38.38
2019-02-28T03:55:11.038Z,33.28
2019-02-28T03:57:42.891Z,41.77
2019-02-28T04:00:19.373Z,34.73
2019-02-28T04:02:56.640Z,49.83
2019-02-28T04:05:27.968Z,39.03
2019-02-28T04:07:57.756Z,36.20
2019-02-28T04:10:28.991Z,37.45
2019-02-28T04:13:00.017Z,37.67
2019-02-28T04:15:32.058Z,36.90
2019-02-28T04:18:07.131Z,37.13
2019-02-28T04:20:37.666Z,37.58
2019-02-28T04:23:09.788Z,35.55
2019-02-28T04:25:42.201Z,34.20
2019-02-28T04:28:18.641Z,32.70
2019-02-28T04:30:47.626Z,35.92
2019-02-28T04:33:19.233Z,36.10
2019-02-28T04:35:50.766Z,38.70
2019-02-28T04:38:22.429Z,39.20
2019-02-28T04:40:54.880Z,34.05
2019-02-28T04:43:26.468Z,35.48
2019-02-28T04:45:58.547Z,34.30
2019-02-28T04:48:30.510Z,37.15
2019-02-28T04:51:02.350Z,38.30
2019-02-28T04:53:34.792Z,37.00
2019-02-28T04:56:10.999Z,36.00
2019-02-28T04:58:44.072Z,36.73
2019-02-28T05:01:15.785Z,37.23
2019-02-28T05:03:47.717Z,35.83
2019-02-28T05:06:29.670Z,39.63
2019-02-28T05:09:30.606Z,34.20
2019-02-28T05:12:05.361Z,36.00
2019-02-28T05:17:47.253Z,45.28
2019-02-28T05:20:19.403Z,35.45
2019-02-28T05:22:50.039Z,33.63
2019-02-28T05:25:21.819Z,33.98
2019-02-28T05:27:53.234Z,35.98
2019-02-28T05:30:24.492Z,32.63
2019-02-28T05:32:55.763Z,37.90
2019-02-28T05:35:27.309Z,32.33
2019-02-28T05:37:59.243Z,30.02
2019-02-28T05:40:30.504Z,37.03
2019-02-28T05:43:01.829Z,30.08
2019-02-28T05:45:32.856Z,38.75
2019-02-28T05:48:04.727Z,36.30
2019-02-28T05:50:36.308Z,35.33
2019-02-28T05:53:09.366Z,33.85
2019-02-28T05:55:41.931Z,34.40
2019-02-28T05:58:17.482Z,35.17
2019-02-28T06:00:46.487Z,33.38
2019-02-28T06:03:18.059Z,37.20
2019-02-28T06:05:49.903Z,32.05
2019-02-28T06:08:21.775Z,35.20
2019-02-28T06:10:56.024Z,31.50
2019-02-28T06:13:26.620Z,32.60
2019-02-28T06:15:58.476Z,31.62
2019-02-28T06:18:33.343Z,35.45
2019-02-28T06:21:03.937Z,35.52
2019-02-28T06:23:34.943Z,33.45
2019-02-28T06:26:07.011Z,40.05
2019-02-28T06:28:38.290Z,34.18
2019-02-28T06:31:09.264Z,37.23
2019-02-28T06:33:42.601Z,34.10
2019-02-28T06:36:13.893Z,42.43
2019-02-28T06:38:45.165Z,40.52
2019-02-28T06:41:17.103Z,38.30
2019-02-28T06:43:50.213Z,37.83
2019-02-28T06:46:22.163Z,36.77
2019-02-28T06:48:53.813Z,37.65
2019-02-28T06:51:25.484Z,38.33
2019-02-28T06:53:56.722Z,34.33
2019-02-28T06:56:28.277Z,35.08
2019-02-28T06:58:59.992Z,32.10
2019-02-28T07:01:31.859Z,43.52
2019-02-28T07:04:03.485Z,34.20
2019-02-28T07:06:35.933Z,33.95
2019-02-28T07:09:09.309Z,37.55
2019-02-28T07:11:40.892Z,52.40
2019-02-28T07:14:13.793Z,35.83
2019-02-28T07:16:45.233Z,33.00
2019-02-28T07:19:17.331Z,34.23
2019-02-28T07:21:48.374Z,41.88
2019-02-28T07:24:19.523Z,33.05
2019-02-28T07:26:52.257Z,31.93
2019-02-28T07:29:24.891Z,31.42
2019-02-28T07:31:59.850Z,37.40
2019-02-28T07:34:29.438Z,33.78
2019-02-28T07:37:00.726Z,33.85
2019-02-28T07:39:32.351Z,40.03
2019-02-28T07:42:04.176Z,34.08
2019-02-28T07:44:37.996Z,34.13
2019-02-28T07:47:09.170Z,36.77
2019-02-28T07:49:40.842Z,38.30
2019-02-28T07:52:12.122Z,35.50
2019-02-28T07:54:43.081Z,40.55
2019-02-28T07:57:17.323Z,35.25
2019-02-28T07:59:47.737Z,33.98
2019-02-28T08:02:19.316Z,39.27
2019-02-28T08:04:50.799Z,39.30
2019-02-28T08:07:23.707Z,35.35
2019-02-28T08:09:55.023Z,36.98
2019-02-28T08:12:27.412Z,41.25
2019-02-28T08:14:59.788Z,40.40
2019-02-28T08:17:31.647Z,43.95
2019-02-28T08:20:03.316Z,38.50
2019-02-28T08:22:35.301Z,34.60
2019-02-28T08:25:08.584Z,37.90
2019-02-28T08:27:40.245Z,31.90
2019-02-28T08:30:16.328Z,35.50
2019-02-28T08:32:49.059Z,36.70
2019-02-28T08:35:20.631Z,37.27
2019-02-28T08:37:55.877Z,38.10
2019-02-28T08:40:26.655Z,38.70
2019-02-28T08:42:58.526Z,37.10
2019-02-28T08:45:33.414Z,35.57
2019-02-28T08:48:03.928Z,40.77
2019-02-28T08:50:35.759Z,47.80
2019-02-28T08:53:07.543Z,45.57
2019-02-28T08:55:41.636Z,37.43
2019-02-28T08:58:12.483Z,40.57
2019-02-28T09:00:43.218Z,41.90
2019-02-28T09:03:14.328Z,42.70
2019-02-28T09:05:45.765Z,46.60
2019-02-28T09:08:17.776Z,42.03
2019-02-28T09:10:49.265Z,40.43
2019-02-28T09:13:20.620Z,51.50
2019-02-28T09:15:52.183Z,48.43
2019-02-28T09:18:23.441Z,41.17
2019-02-28T09:20:55.315Z,39.67
2019-02-28T09:23:26.918Z,39.93
2019-02-28T09:25:58.239Z,39.33
2019-02-28T09:28:29.205Z,39.90
2019-02-28T09:31:01.420Z,50.90
2019-02-28T09:33:34.123Z,42.90
2019-02-28T09:36:06.439Z,44.03
2019-02-28T09:38:38.248Z,43.47
2019-02-28T09:41:10.250Z,40.70
2019-02-28T09:43:42.548Z,46.90
2019-02-28T09:46:15.540Z,44.63
2019-02-28T09:48:46.587Z,39.03
2019-02-28T09:51:18.555Z,38.10
2019-02-28T09:53:50.948Z,46.57
2019-02-28T09:56:22.832Z,43.23
2019-02-28T09:58:54.091Z,42.00
2019-02-28T10:01:25.734Z,40.33
2019-02-28T10:03:57.624Z,53.70
2019-02-28T10:06:28.850Z,43.60
2019-02-28T10:09:00.442Z,47.90
2019-02-28T10:11:32.579Z,42.57
2019-02-28T10:14:03.697Z,36.03
2019-02-28T10:16:35.008Z,41.17
2019-02-28T10:19:06.606Z,37.00
2019-02-28T10:21:39.655Z,40.93
2019-02-28T10:24:10.712Z,42.07
2019-02-28T10:26:42.331Z,46.30
2019-02-28T10:29:14.204Z,39.60
2019-02-28T10:31:45.539Z,40.00
2019-02-28T10:34:16.545Z,40.70
2019-02-28T10:36:48.926Z,45.73
2019-02-28T10:39:19.901Z,44.10
2019-02-28T10:41:51.545Z,43.90
2019-02-28T10:44:23.135Z,40.07
2019-02-28T10:46:54.771Z,37.40
2019-02-28T10:49:26.401Z,40.93
2019-02-28T10:51:58.099Z,38.27
2019-02-28T10:54:29.642Z,44.67
2019-02-28T10:57:03.087Z,40.50
2019-02-28T10:59:34.559Z,37.43
2019-02-28T11:02:05.646Z,43.70
2019-02-28T11:04:42.791Z,43.63
2019-02-28T11:07:10.335Z,38.93
2019-02-28T11:09:41.903Z,42.77
2019-02-28T11:12:13.272Z,44.53
2019-02-28T11:14:45.188Z,40.33
2019-02-28T11:17:16.764Z,37.70
2019-02-28T11:19:52.015Z,51.30
2019-02-28T11:22:21.928Z,49.13
2019-02-28T11:24:54.270Z,39.70
2019-02-28T11:27:25.857Z,40.53
2019-02-28T11:29:57.708Z,45.20
2019-02-28T11:32:29.955Z,34.23
2019-02-28T11:35:01.652Z,39.47
2019-02-28T11:37:32.591Z,41.53
2019-02-28T11:40:05.424Z,34.90
2019-02-28T11:42:36.882Z,44.40
2019-02-28T11:45:12.781Z,35.60
2019-02-28T11:47:44.603Z,34.83
2019-02-28T11:50:16.178Z,32.23
2019-02-28T11:52:47.652Z,30.47
2019-02-28T11:55:20.382Z,38.37
2019-02-28T11:57:55.575Z,35.00
2019-02-28T12:00:32.542Z,30.70
2019-02-28T12:03:03.014Z,43.20
2019-02-28T12:05:34.310Z,32.77
2019-02-28T12:08:06.360Z,41.70
2019-02-28T12:10:39.057Z,32.53
2019-02-28T12:13:11.423Z,37.40
2019-02-28T12:15:43.087Z,36.37
2019-02-28T12:18:15.001Z,33.43
2019-02-28T12:20:45.941Z,35.60
2019-02-28T12:23:22.960Z,41.77
2019-02-28T12:25:51.382Z,33.43
2019-02-28T12:28:22.751Z,33.97
2019-02-28T12:30:57.286Z,36.97
2019-02-28T12:33:27.897Z,33.07
2019-02-28T12:35:59.144Z,32.07
2019-02-28T12:38:30.632Z,29.83
2019-02-28T12:41:01.900Z,32.87
2019-02-28T12:43:33.888Z,34.20
2019-02-28T12:46:05.498Z,34.93
2019-02-28T12:48:37.565Z,33.30
2019-02-28T12:51:08.994Z,33.50
2019-02-28T12:53:40.765Z,40.70
2019-02-28T12:56:14.363Z,29.77
2019-02-28T12:58:45.929Z,35.40
2019-02-28T13:01:18.273Z,32.30
2019-02-28T13:03:54.631Z,32.97
2019-02-28T13:06:23.666Z,35.90
2019-02-28T13:08:56.107Z,30.80
2019-02-28T13:11:27.094Z,33.37
2019-02-28T13:13:59.902Z,34.10
2019-02-28T13:16:31.991Z,26.43
2019-02-28T13:19:03.974Z,28.00
2019-02-28T13:21:35.835Z,25.43
2019-02-28T13:24:09.676Z,41.53
2019-02-28T13:26:42.007Z,34.50
2019-02-28T13:29:13.604Z,28.27
2019-02-28T13:31:45.657Z,33.07
2019-02-28T13:34:16.692Z,32.07
2019-02-28T13:36:48.731Z,34.77
2019-02-28T13:39:21.450Z,41.93
2019-02-28T13:41:53.519Z,29.83
2019-02-28T13:44:25.602Z,28.33
2019-02-28T13:46:57.099Z,37.43
2019-02-28T13:49:28.995Z,46.80
2019-02-28T13:52:00.706Z,30.10
2019-02-28T13:54:32.450Z,36.50
2019-02-28T13:57:08.105Z,33.53
2019-02-28T13:59:38.065Z,36.03
2019-02-28T14:02:09.663Z,32.00
2019-02-28T14:04:41.362Z,30.87
2019-02-28T14:07:13.346Z,25.23
2019-02-28T14:09:45.334Z,31.70
2019-02-28T14:12:20.456Z,31.13
2019-02-28T14:14:50.780Z,33.43
2019-02-28T14:17:22.710Z,36.83
2019-02-28T14:19:53.735Z,33.50
2019-02-28T14:22:25.381Z,32.30
2019-02-28T14:24:58.090Z,30.97
2019-02-28T14:27:29.436Z,28.07
2019-02-28T14:30:01.138Z,31.03
2019-02-28T14:32:33.033Z,32.53
2019-02-28T14:35:04.727Z,28.07
2019-02-28T14:37:35.750Z,39.00
2019-02-28T14:40:10.933Z,26.77
2019-02-28T14:42:43.584Z,31.63
2019-02-28T14:45:16.365Z,26.67
2019-02-28T14:47:57.073Z,36.47
2019-02-28T14:50:24.250Z,27.97
2019-02-28T14:52:57.322Z,32.33
2019-02-28T14:55:32.596Z,34.13
2019-02-28T14:58:02.828Z,30.23
2019-02-28T15:00:35.439Z,27.43
2019-02-28T15:03:07.004Z,34.60
2019-02-28T15:05:39.405Z,28.67
2019-02-28T15:08:11.924Z,28.20
2019-02-28T15:10:44.897Z,24.77
2019-02-28T15:13:16.352Z,53.70
2019-02-28T15:15:49.524Z,33.33
2019-02-28T15:18:20.540Z,29.00
2019-02-28T15:20:52.141Z,40.20
2019-02-28T15:23:23.463Z,27.57
2019-02-28T15:25:55.063Z,27.67
2019-02-28T15:28:27.107Z,28.30
2019-02-28T15:30:58.912Z,26.80
2019-02-28T15:33:30.669Z,28.50
2019-02-28T15:36:02.590Z,27.77
2019-02-28T15:38:33.901Z,30.73
2019-02-28T15:41:05.590Z,31.53
2019-02-28T15:43:37.940Z,28.23
2019-02-28T15:46:12.075Z,23.07
2019-02-28T15:48:44.222Z,42.03
2019-02-28T15:51:15.651Z,27.17
2019-02-28T15:53:49.582Z,20.97
2019-02-28T15:56:21.641Z,28.00
2019-02-28T15:58:53.291Z,26.83
2019-02-28T16:01:28.650Z,23.47
2019-02-28T16:03:59.529Z,19.40
2019-02-28T16:06:31.243Z,29.33
2019-02-28T16:09:03.029Z,22.57
2019-02-28T16:11:37.334Z,31.00
2019-02-28T16:14:14.538Z,25.00
2019-02-28T16:16:43.894Z,25.63
2019-02-28T16:19:15.486Z,26.63
2019-02-28T16:21:47.597Z,35.80
2019-02-28T16:24:18.926Z,47.00
2019-02-28T16:26:53.471Z,32.87
2019-02-28T16:29:23.628Z,44.00
2019-02-28T16:31:55.055Z,31.40
2019-02-28T16:34:26.381Z,30.60
2019-02-28T16:37:01.116Z,35.30
2019-02-28T16:39:31.081Z,36.23
2019-02-28T16:42:03.022Z,31.50
2019-02-28T16:44:35.002Z,31.50
2019-02-28T16:47:06.937Z,34.13
2019-02-28T16:49:38.292Z,29.30
2019-02-28T16:52:09.698Z,25.23
2019-02-28T16:54:41.172Z,23.60
2019-02-28T16:57:13.103Z,22.93
2019-02-28T16:59:44.840Z,34.80
2019-02-28T17:02:16.084Z,33.70
2019-02-28T17:04:48.714Z,29.10
2019-02-28T17:07:21.352Z,42.30
2019-02-28T17:09:52.971Z,22.83
2019-02-28T17:12:42.946Z,21.03
2019-02-28T17:15:23.023Z,26.73
2019-02-28T17:17:57.070Z,23.03
2019-02-28T17:20:28.716Z,26.43
2019-02-28T17:23:01.473Z,25.23
2019-02-28T17:25:33.330Z,23.23
2019-02-28T17:28:24.242Z,14.27
2019-02-28T17:31:20.024Z,25.33
2019-02-28T17:33:52.070Z,26.70
2019-02-28T17:36:23.747Z,15.37
2019-02-28T17:38:55.076Z,12.60
2019-02-28T17:41:26.512Z,17.00
2019-02-28T17:45:04.859Z,18.10
2019-02-28T17:48:32.575Z,18.00
2019-02-28T17:51:35.880Z,20.70
2019-02-28T17:54:47.774Z,17.97
2019-02-28T17:57:54.807Z,16.07
2019-02-28T18:01:40.528Z,16.90
2019-02-28T18:04:56.114Z,36.83
2019-02-28T18:08:43.456Z,18.80
2019-02-28T18:11:50.154Z,14.80
2019-02-28T18:14:39.167Z,18.83
2019-02-28T18:18:05.443Z,14.97
2019-02-28T18:21:40.995Z,19.77
2019-02-28T18:25:21.331Z,13.87
2019-02-28T18:28:47.278Z,18.60
2019-02-28T18:31:22.221Z,19.30
2019-02-28T18:34:07.747Z,13.83
2019-02-28T18:36:40.182Z,12.97
2019-02-28T18:39:13.897Z,9.60
2019-02-28T18:41:45.511Z,10.77
2019-02-28T18:44:16.939Z,12.13
2019-02-28T18:46:49.013Z,11.60
2019-02-28T18:49:20.857Z,11.50
2019-02-28T18:51:52.862Z,11.10
2019-02-28T18:54:24.634Z,10.07
2019-02-28T18:56:56.412Z,10.67
2019-02-28T18:59:27.486Z,10.57
2019-02-28T19:01:59.518Z,10.13
2019-02-28T19:04:31.815Z,15.17
2019-02-28T19:07:03.331Z,9.20
2019-02-28T19:09:35.244Z,12.40
2019-02-28T19:12:06.939Z,16.20
2019-02-28T19:14:38.939Z,15.43
2019-02-28T19:17:10.918Z,12.90
2019-02-28T19:19:43.173Z,19.13
2019-02-28T19:22:14.902Z,15.03
2019-02-28T19:24:46.871Z,13.40
2019-02-28T19:27:18.292Z,16.57
2019-02-28T19:29:50.157Z,14.10
2019-02-28T19:32:21.737Z,10.00
2019-02-28T19:34:54.049Z,19.10
2019-02-28T19:37:25.634Z,16.73
2019-02-28T19:39:57.301Z,12.53
2019-02-28T19:42:29.537Z,11.80
2019-02-28T19:45:01.639Z,14.50
2019-02-28T19:47:34.024Z,16.37
2019-02-28T19:50:06.680Z,17.07
2019-02-28T19:52:38.956Z,12.90
2019-02-28T19:55:13.386Z,13.93
2019-02-28T19:57:45.096Z,8.40
2019-02-28T20:00:18.253Z,21.13
2019-02-28T20:02:50.656Z,9.10
2019-02-28T20:05:22.533Z,15.77
2019-02-28T20:07:54.928Z,13.27
2019-02-28T20:10:27.748Z,24.57
2019-02-28T20:13:00.298Z,11.93
2019-02-28T20:15:35.733Z,13.00
2019-02-28T20:18:07.201Z,20.03
2019-02-28T20:20:39.712Z,8.57
2019-02-28T20:23:11.961Z,12.47
2019-02-28T20:25:44.307Z,10.60
2019-02-28T20:28:15.222Z,13.90
2019-02-28T20:30:47.653Z,17.17
2019-02-28T20:33:19.342Z,13.70
2019-02-28T20:35:51.261Z,23.53
2019-02-28T20:38:22.708Z,20.20
2019-02-28T20:40:55.262Z,14.40
2019-02-28T20:43:27.465Z,11.73
2019-02-28T20:45:58.846Z,18.10
2019-02-28T20:48:30.231Z,12.53
2019-02-28T20:51:00.944Z,12.57
2019-02-28T20:53:32.629Z,11.50
2019-02-28T20:56:03.991Z,10.07
2019-02-28T20:58:35.815Z,12.73
2019-02-28T21:01:07.138Z,14.17
2019-02-28T21:03:38.776Z,13.10
2019-02-28T21:06:11.071Z,12.67
2019-02-28T21:08:42.745Z,20.47
2019-02-28T21:11:14.775Z,24.57
2019-02-28T21:13:47.284Z,21.13
2019-02-28T21:16:19.324Z,19.73
2019-02-28T21:18:51.090Z,17.13
2019-02-28T21:21:23.064Z,22.93
2019-02-28T21:23:55.481Z,15.93
2019-02-28T21:26:27.324Z,16.70
2019-02-28T21:28:58.956Z,16.13
2019-02-28T21:31:30.314Z,20.30
2019-02-28T21:34:01.965Z,12.70
2019-02-28T21:36:34.563Z,14.03
2019-02-28T21:39:08.117Z,15.53
2019-02-28T21:41:39.670Z,18.97
2019-02-28T21:44:11.684Z,15.60
2019-02-28T21:46:43.983Z,15.37
2019-02-28T21:49:15.795Z,15.63
2019-02-28T21:51:48.021Z,30.70
2019-02-28T21:54:19.793Z,15.17
2019-02-28T21:56:51.290Z,16.40
2019-02-28T21:59:23.814Z,14.33
2019-02-28T22:01:55.823Z,15.33
2019-02-28T22:04:27.701Z,16.33
2019-02-28T22:06:59.485Z,26.03
2019-02-28T22:09:31.627Z,16.30
2019-02-28T22:12:03.320Z,9.63
2019-02-28T22:14:34.576Z,17.70
2019-02-28T22:17:06.621Z,8.90
2019-02-28T22:19:38.494Z,15.00
2019-02-28T22:22:09.837Z,11.43
2019-02-28T22:24:41.285Z,11.80
2019-02-28T22:27:13.307Z,12.73
2019-02-28T22:29:44.931Z,12.03
2019-02-28T22:32:24.597Z,12.17
2019-02-28T22:35:05.872Z,13.33
2019-02-28T22:37:37.171Z,8.47
2019-02-28T22:40:08.636Z,11.30
2019-02-28T22:42:40.302Z,12.33
2019-02-28T22:45:11.623Z,9.43
2019-02-28T22:47:43.203Z,14.03
2019-02-28T22:50:15.100Z,20.57
2019-02-28T22:52:46.482Z,15.65
2019-02-28T22:55:17.438Z,11.70
2019-02-28T22:57:48.424Z,19.82
2019-02-28T23:00:46.966Z,16.73
2019-02-28T23:03:18.253Z,20.20
2019-02-28T23:05:50.196Z,11.73
2019-02-28T23:08:21.908Z,14.30
2019-02-28T23:10:53.224Z,10.53
2019-02-28T23:13:24.782Z,17.50
2019-02-28T23:15:56.358Z,18.00
2019-02-28T23:18:27.401Z,17.50
2019-02-28T23:20:58.802Z,19.37
2019-02-28T23:23:29.973Z,19.07
2019-02-28T23:26:11.238Z,20.10
2019-02-28T23:28:53.229Z,18.92
2019-02-28T23:32:14.650Z,25.50
2019-02-28T23:34:50.870Z,22.67
2019-02-28T23:37:22.434Z,13.18
2019-02-28T23:39:53.426Z,21.62
2019-02-28T23:42:24.713Z,18.20
2019-02-28T23:44:56.606Z,18.62
2019-02-28T23:47:28.498Z,17.35
2019-02-28T23:50:00.315Z,15.30
2019-02-28T23:52:31.652Z,23.83
2019-02-28T23:55:02.797Z,20.80
2019-02-28T23:57:34.472Z,13.50
